メインページ
METAR-TAF:

METAR-TAF

空港 :

Goose Bay, ニューファンドランド・ラブラドール州, カナダ

緯度: 53-19N, 経度: 060-25W, 海抜: 46m

現時点の気象観測

当レポートは23分前の17:00(UTC)に作成
北/北西の風 18kt
気温 19°C
湿度 34%
気圧 1009 hPa
視程: 24.1km
高度6400ftの雲は散在している
高度10000ftの雲は散在している

METAR: CYYR 261700Z 33018KT 15SM SCT064 SCT100 19/03 A2981 RMK CU3AC1 SLP094

時間: 14:23 (17:23 UTC)

予報

当レポートは18分前の17:05(UTC)に作成
予報は26日の 17時(UTC)から 27日の 12時(UTC)まで有効
北/北西の風 15kt
視程: 10km
高度6000ftの雲は散在している
高度10000ftの雲は散在している
27日の 0000時(UTC)から
北西の風 10kt、最大20ktの突風を伴う
視程: 10km
高度2500ftの千切れ雲あり
27日の 06時(UTC)から 27日の 08時(UTC)まで徐々に
西/北西の風 8kt

TAF: CYYR 261705Z 2617/2712 33015KT P6SM SCT060 SCT100 FM270000 32010G20KT P6SM BKN025 BECMG 2706/2708 30008KT RMK NXT FCST BY 261800Z

4,000以上の空港の気象観測と天気予報(METAR報とTAF報)

利用可能な観測所は地図上に黄色い丸と赤い丸で示す。

丸の上にカーソルを重ねると観測所名を参照できる。

次にクリックすると気象観測と天気予報を参照できる。

マップの切り替え:黒色「×」印の緑ボタンをクリックして拡大、「-」印の緑ボタンをクリックして縮小、緑色の三角印をクリックして隣りの地図に切り替え


METAR-TAF: